Аэропорт: Кадала. Чита

ICAO: UIAA

METAR:
2021-01-27 03:30:00
UIAA 270330Z 00000MPS 9999 FEW046CB M20/M27 Q1016 R29/490540 NOSIG RMK QFE704/0938
METAR:
2021-01-27 02:00:00
TAF UIAA 270200Z 2703/2803 30006G12MPS 9999 SCT030CB TEMPO 2703/2706 36003MPS TEMPO 2706/2712 3100 -SHSN DRSN TEMPO 2715/2803 22003MPS